Vestmannaeyjar, Iceland

6:43 PM GMT on August 23, 2014 (GMT +0000)
Vestmannaeyjar | Change Station
CLOSE
Current Station
Airport
Location: Vestmannaeyjar,
Elevation: 407 ft
Nearby Weather Stations

Elev 407 ft 63.40 °N, 20.28 °W | Updated 43 minutes ago

Mostly Cloudy
Mostly Cloudy
52 °F
Feels Like 52 °F
N
10
Wind Variable Wind from WNW

Today
High -- | Low -- °F
--% Chance of Precip.
Yesterday
High -- | Low -- °F
Precip. -- in
5:39 AM 9:05 PM
Waning Crescent, 3% visible
Pressure 29.89 in
Visibility 6.2 miles
Clouds Scattered Clouds 2000 ft
Mostly Cloudy 3000 ft
Dew Point 45 °F
Humidity 76%
Rainfall 0.00 in
Snow Depth Not available.
UV 1 out of 12
Pollen Not available.
Air Quality Not available.
Flu Activity Not available.
METAR BIVM 231800Z 29009KT 9999 SCT020 BKN030 11/07 Q1012

More Conditions Fewer Conditions

Pressure 29.89 in
Visibility 6.2 miles
Clouds Scattered Clouds 2000 ft
Mostly Cloudy 3000 ft
Dew Point 45 °F
Humidity 76%
Rainfall 0.00 in
Snow Depth Not available.
UV 1 out of 12
Pollen Not available.
Air Quality Not available.
Flu Activity Not available.
METAR BIVM 231800Z 29009KT 9999 SCT020 BKN030 11/07 Q1012

More Conditions Fewer Conditions

10-Day Weather Forecast

Almanac

Astronomy

Aug. 23, 2014 Rise Set
Actual Time 5:39 AM GMT 9:05 PM GMT
Civil Twilight 4:43 AM GMT 10:01 PM GMT
Nautical Twilight 3:17 AM GMT 11:25 PM GMT
Astronomical Twilight Sun does not rise 12:51 AM GMT
Moon 3:28 AM GMT 7:49 PM GMT
Length of Visible Light 17h 17m
Length of Day
15h 25m
Tomorrow will be 6m 18s shorter.
Waning Crescent, 3% of the Moon is Illuminated
Today
Waning Crescent
Aug 25
New
Sep 2
First Quarter
Sep 8
Full
Sep 15
Last Quarter

Today's Extremes

Country Highs Country Lows

Community

WunderPhotos

Upload Photos

1,746,558 photos uploaded!

WunderBlogs® & News

By Dr. Jeff Masters
Director of Meteorology, Weather Underground
By Kari Strenfel
Meteorologist, Weather Underground
By Christopher C. Burt
Weather Historian, Weather Underground
August 23, 2014
August 23, 2014
August 23, 2014

Nearby

Snow Depth

Not available.

Earthquake Activity

City Distance Mag. Time & Date
No recent earthquake activity has been reported nearby.
Minimum magnitude displayed is 2.5.

Coastal Water Temperatures

Place Temperature
No Stations Reporting

Nearby Weather Stations